createdAt,value
2022-12-18T00:00:01.799Z,85.70
2022-12-18T00:02:23.828Z,86.49
2022-12-18T00:03:24.166Z,85.55
2022-12-18T00:04:24.497Z,85.16
2022-12-18T00:05:26.547Z,85.20
2022-12-18T00:06:24.945Z,85.48
2022-12-18T00:07:25.904Z,85.10
2022-12-18T00:08:25.671Z,85.69
2022-12-18T00:09:25.840Z,85.58
2022-12-18T00:10:29.019Z,85.06
2022-12-18T00:11:26.428Z,85.16
2022-12-18T00:12:26.724Z,85.33
2022-12-18T00:13:27.032Z,84.81
2022-12-18T00:14:27.360Z,84.18
2022-12-18T00:15:29.539Z,84.28
2022-12-18T00:16:29.728Z,83.93
2022-12-18T00:17:28.232Z,83.65
2022-12-18T00:18:31.375Z,83.44
2022-12-18T00:19:28.884Z,83.44
2022-12-18T00:20:32.508Z,84.25
2022-12-18T00:21:30.868Z,83.30
2022-12-18T00:22:30.585Z,83.79
2022-12-18T00:23:31.003Z,83.47
2022-12-18T00:24:31.161Z,83.08
2022-12-18T00:25:31.592Z,81.68
2022-12-18T00:26:32.845Z,80.84
2022-12-18T00:27:33.033Z,80.11
2022-12-18T00:28:32.510Z,80.94
2022-12-18T00:29:31.867Z,79.66
2022-12-18T00:30:35.009Z,80.98
2022-12-18T00:31:35.251Z,82.00
2022-12-18T00:32:32.650Z,82.35
2022-12-18T00:33:35.949Z,83.13
2022-12-18T00:34:34.271Z,83.97
2022-12-18T00:35:34.461Z,83.90
2022-12-18T00:36:34.875Z,85.16
2022-12-18T00:37:35.037Z,84.91
2022-12-18T00:38:36.464Z,84.49
2022-12-18T00:39:35.808Z,84.74
2022-12-18T00:40:36.027Z,85.02
2022-12-18T00:41:36.447Z,84.60
2022-12-18T00:42:36.602Z,84.35
2022-12-18T00:43:38.420Z,83.61
2022-12-18T00:44:36.348Z,82.84
2022-12-18T00:45:36.679Z,82.46
2022-12-18T00:46:36.974Z,82.81
2022-12-18T00:47:37.295Z,83.69
2022-12-18T00:48:37.606Z,84.18
2022-12-18T00:49:39.791Z,84.08
2022-12-18T00:50:38.182Z,84.28
2022-12-18T00:51:38.496Z,84.08
2022-12-18T00:52:38.805Z,84.18
2022-12-18T00:53:39.471Z,84.08
2022-12-18T00:54:40.322Z,83.90
2022-12-18T00:55:41.522Z,85.31
2022-12-18T00:56:49.608Z,85.83
2022-12-18T00:57:43.132Z,86.00
2022-12-18T00:58:42.110Z,85.37
2022-12-18T00:59:42.780Z,85.27
2022-12-18T01:00:43.052Z,85.58
2022-12-18T01:01:43.346Z,84.70
2022-12-18T01:02:43.464Z,84.11
2022-12-18T01:03:43.535Z,84.89
2022-12-18T01:04:44.216Z,85.52
2022-12-18T01:05:42.603Z,85.20
2022-12-18T01:06:42.922Z,85.52
2022-12-18T01:07:43.223Z,85.24
2022-12-18T01:08:43.541Z,85.83
2022-12-18T01:09:45.715Z,85.55
2022-12-18T01:10:44.112Z,85.94
2022-12-18T01:11:46.287Z,85.87
2022-12-18T01:12:46.471Z,86.61
2022-12-18T01:13:44.978Z,86.51
2022-12-18T01:14:47.188Z,86.57
2022-12-18T01:15:45.562Z,85.73
2022-12-18T01:16:45.916Z,85.87
2022-12-18T01:17:48.054Z,86.19
2022-12-18T01:18:46.443Z,86.04
2022-12-18T01:19:48.633Z,85.94
2022-12-18T01:20:47.023Z,85.31
2022-12-18T01:21:49.195Z,85.73
2022-12-18T01:22:49.386Z,85.66
2022-12-18T01:23:47.897Z,86.08
2022-12-18T01:24:48.192Z,86.15
2022-12-18T01:25:48.498Z,85.87
2022-12-18T01:26:48.819Z,86.25
2022-12-18T01:27:51.008Z,85.79
2022-12-18T01:28:51.188Z,84.78
2022-12-18T01:29:52.329Z,84.74
2022-12-18T01:30:49.987Z,85.03
2022-12-18T01:31:52.205Z,85.10
2022-12-18T01:32:50.641Z,85.58
2022-12-18T01:33:50.945Z,84.57
2022-12-18T01:34:53.153Z,84.82
2022-12-18T01:35:51.538Z,85.62
2022-12-18T01:36:53.707Z,84.95
2022-12-18T01:37:53.889Z,84.42
2022-12-18T01:38:54.086Z,84.11
2022-12-18T01:39:52.717Z,84.42
2022-12-18T01:40:53.029Z,84.32
2022-12-18T01:41:55.203Z,83.48
2022-12-18T01:42:55.393Z,83.80
2022-12-18T01:43:55.554Z,83.59
2022-12-18T01:44:54.192Z,83.48
2022-12-18T01:45:54.546Z,84.22
2022-12-18T01:46:56.714Z,84.01
2022-12-18T01:47:55.096Z,83.94
2022-12-18T01:48:55.363Z,84.67
2022-12-18T01:49:55.678Z,84.61
2022-12-18T01:50:56.003Z,85.20
2022-12-18T01:51:58.205Z,84.47
2022-12-18T01:52:56.594Z,84.67
2022-12-18T01:53:56.912Z,84.64
2022-12-18T01:54:59.081Z,84.11
2022-12-18T01:55:57.475Z,83.83
2022-12-18T01:56:59.652Z,84.47
2022-12-18T01:57:58.033Z,84.22
2022-12-18T01:58:58.355Z,83.69
2022-12-18T01:59:58.686Z,83.80
2022-12-18T02:00:59.011Z,83.48
2022-12-18T02:02:02.841Z,83.27
2022-12-18T02:02:59.714Z,83.80
2022-12-18T02:04:00.826Z,84.01
2022-12-18T02:05:00.081Z,83.62
2022-12-18T02:06:00.385Z,84.15
2022-12-18T02:07:02.577Z,84.01
2022-12-18T02:08:00.976Z,83.86
2022-12-18T02:09:01.294Z,82.85
2022-12-18T02:10:03.480Z,83.62
2022-12-18T02:11:03.668Z,83.69
2022-12-18T02:12:03.849Z,84.05
2022-12-18T02:13:02.497Z,84.32
2022-12-18T02:14:05.653Z,83.73
2022-12-18T02:15:03.867Z,83.37
2022-12-18T02:16:05.301Z,82.92
2022-12-18T02:17:05.412Z,82.64
2022-12-18T02:18:04.857Z,82.43
2022-12-18T02:19:06.091Z,82.64
2022-12-18T02:20:05.435Z,82.46
2022-12-18T02:21:05.594Z,83.20
2022-12-18T02:22:06.990Z,83.06
2022-12-18T02:23:06.170Z,83.10
2022-12-18T02:24:06.586Z,83.34
2022-12-18T02:25:05.953Z,82.14
2022-12-18T02:26:06.330Z,80.68
2022-12-18T02:27:08.478Z,80.89
2022-12-18T02:28:08.678Z,82.46
2022-12-18T02:29:07.898Z,82.57
2022-12-18T02:30:08.316Z,83.14
2022-12-18T02:31:07.687Z,83.52
2022-12-18T02:32:09.829Z,83.27
2022-12-18T02:33:08.214Z,83.41
2022-12-18T02:34:08.523Z,83.10
2022-12-18T02:35:08.832Z,83.52
2022-12-18T02:36:09.151Z,83.59
2022-12-18T02:37:11.339Z,82.57
2022-12-18T02:38:09.744Z,82.68
2022-12-18T02:39:10.050Z,82.85
2022-12-18T02:40:10.379Z,82.89
2022-12-18T02:41:10.693Z,82.85
2022-12-18T02:42:12.874Z,82.50
2022-12-18T02:43:11.263Z,81.70
2022-12-18T02:44:11.573Z,81.84
2022-12-18T02:45:11.881Z,82.89
2022-12-18T02:46:12.289Z,83.34
2022-12-18T02:47:14.423Z,84.05
2022-12-18T02:48:14.603Z,83.56
2022-12-18T02:49:14.804Z,84.29
2022-12-18T02:50:14.993Z,83.94
2022-12-18T02:51:15.173Z,83.76
2022-12-18T02:52:15.866Z,83.83
2022-12-18T02:53:16.063Z,83.98
2022-12-18T02:54:16.230Z,84.36
2022-12-18T02:55:16.423Z,84.25
2022-12-18T02:56:17.116Z,83.83
2022-12-18T02:57:17.294Z,83.56
2022-12-18T02:58:17.484Z,83.10
2022-12-18T02:59:17.670Z,83.34
2022-12-18T03:00:18.375Z,83.66
2022-12-18T03:01:16.875Z,84.19
2022-12-18T03:02:17.258Z,84.08
2022-12-18T03:03:19.265Z,84.08
2022-12-18T03:04:17.700Z,83.87
2022-12-18T03:05:18.009Z,84.08
2022-12-18T03:06:20.223Z,83.87
2022-12-18T03:07:18.612Z,83.31
2022-12-18T03:08:20.810Z,82.57
2022-12-18T03:09:19.200Z,83.41
2022-12-18T03:10:19.524Z,83.14
2022-12-18T03:11:19.838Z,83.10
2022-12-18T03:12:20.148Z,82.78
2022-12-18T03:13:22.333Z,82.57
2022-12-18T03:14:20.722Z,82.50
2022-12-18T03:15:21.039Z,83.28
2022-12-18T03:16:23.273Z,83.95
2022-12-18T03:17:21.633Z,84.44
2022-12-18T03:18:21.955Z,84.37
2022-12-18T03:19:22.283Z,84.47
2022-12-18T03:20:22.592Z,84.23
2022-12-18T03:21:24.798Z,84.54
2022-12-18T03:22:25.003Z,84.37
2022-12-18T03:23:26.230Z,84.47
2022-12-18T03:24:23.879Z,85.00
2022-12-18T03:25:24.191Z,84.94
2022-12-18T03:26:26.378Z,85.21
2022-12-18T03:27:24.798Z,84.89
2022-12-18T03:28:26.989Z,84.79
2022-12-18T03:29:25.373Z,84.58
2022-12-18T03:30:25.694Z,84.79
2022-12-18T03:31:27.930Z,85.04
2022-12-18T03:32:26.332Z,85.04
2022-12-18T03:33:26.646Z,85.57
2022-12-18T03:34:28.803Z,85.00
2022-12-18T03:35:28.983Z,84.86
2022-12-18T03:36:29.194Z,83.70
2022-12-18T03:37:27.821Z,84.12
2022-12-18T03:38:28.137Z,84.27
2022-12-18T03:39:28.459Z,84.37
2022-12-18T03:40:30.643Z,84.37
2022-12-18T03:41:29.030Z,83.88
2022-12-18T03:42:29.343Z,84.83
2022-12-18T03:43:31.519Z,85.46
2022-12-18T03:44:29.911Z,84.62
2022-12-18T03:45:30.227Z,85.00
2022-12-18T03:46:32.426Z,84.47
2022-12-18T03:47:30.843Z,84.23
2022-12-18T03:48:34.523Z,83.17
2022-12-18T03:49:31.429Z,83.53
2022-12-18T03:50:31.751Z,84.01
2022-12-18T03:51:32.056Z,83.63
2022-12-18T03:52:34.260Z,83.70
2022-12-18T03:53:35.846Z,83.98
2022-12-18T03:54:35.548Z,84.41
2022-12-18T03:55:33.204Z,85.00
2022-12-18T03:56:36.322Z,84.62
2022-12-18T03:57:35.530Z,85.08
2022-12-18T03:58:36.666Z,85.11
2022-12-18T03:59:36.447Z,84.72
2022-12-18T04:00:36.592Z,84.89
2022-12-18T04:01:36.079Z,84.27
2022-12-18T04:02:35.426Z,84.27
2022-12-18T04:03:37.580Z,84.09
2022-12-18T04:04:35.991Z,84.37
2022-12-18T04:05:38.172Z,83.73
2022-12-18T04:06:38.360Z,84.05
2022-12-18T04:07:36.874Z,84.27
2022-12-18T04:08:39.068Z,83.70
2022-12-18T04:09:37.646Z,83.53
2022-12-18T04:10:37.798Z,83.73
2022-12-18T04:11:38.299Z,83.42
2022-12-18T04:12:38.451Z,83.73
2022-12-18T04:13:41.063Z,83.63
2022-12-18T04:14:39.027Z,83.11
2022-12-18T04:15:39.367Z,83.56
2022-12-18T04:16:39.647Z,83.95
2022-12-18T04:17:39.954Z,83.42
2022-12-18T04:18:42.185Z,83.21
2022-12-18T04:19:40.530Z,83.63
2022-12-18T04:20:40.790Z,83.31
2022-12-18T04:21:43.716Z,84.09
2022-12-18T04:22:41.370Z,84.30
2022-12-18T04:23:43.697Z,84.58
2022-12-18T04:24:41.995Z,83.73
2022-12-18T04:25:42.299Z,83.63
2022-12-18T04:26:42.612Z,84.09
2022-12-18T04:27:42.928Z,84.41
2022-12-18T04:28:45.121Z,84.47
2022-12-18T04:29:45.279Z,83.63
2022-12-18T04:30:45.464Z,83.63
2022-12-18T04:31:46.138Z,83.42
2022-12-18T04:32:51.930Z,83.84
2022-12-18T04:33:47.516Z,83.95
2022-12-18T04:34:46.699Z,83.84
2022-12-18T04:35:46.898Z,83.73
2022-12-18T04:36:47.093Z,84.12
2022-12-18T04:37:45.849Z,83.31
2022-12-18T04:38:48.046Z,83.42
2022-12-18T04:39:48.223Z,83.56
2022-12-18T04:40:48.421Z,84.16
2022-12-18T04:41:48.593Z,83.42
2022-12-18T04:42:47.394Z,83.84
2022-12-18T04:43:49.511Z,83.95
2022-12-18T04:44:49.701Z,83.59
2022-12-18T04:45:49.869Z,83.17
2022-12-18T04:46:50.101Z,83.21
2022-12-18T04:47:50.738Z,83.28
2022-12-18T04:48:50.930Z,83.11
2022-12-18T04:49:49.436Z,83.21
2022-12-18T04:50:49.757Z,84.05
2022-12-18T04:51:51.951Z,84.01
2022-12-18T04:52:50.334Z,83.42
2022-12-18T04:53:52.490Z,83.63
2022-12-18T04:54:50.881Z,84.30
2022-12-18T04:55:53.068Z,84.72
2022-12-18T04:56:51.458Z,85.08
2022-12-18T04:57:51.761Z,85.67
2022-12-18T04:58:52.084Z,85.95
2022-12-18T04:59:52.399Z,84.94
2022-12-18T05:00:54.578Z,85.21
2022-12-18T05:01:53.055Z,84.96
2022-12-18T05:02:53.504Z,84.47
2022-12-18T05:03:53.538Z,84.47
2022-12-18T05:04:55.686Z,85.36
2022-12-18T05:05:55.857Z,86.03
2022-12-18T05:06:54.370Z,86.52
2022-12-18T05:07:54.682Z,86.16
2022-12-18T05:08:54.995Z,85.60
2022-12-18T05:09:55.308Z,85.17
2022-12-18T05:10:57.501Z,84.54
2022-12-18T05:11:55.887Z,85.00
2022-12-18T05:12:56.196Z,86.05
2022-12-18T05:13:56.509Z,86.37
2022-12-18T05:14:58.687Z,86.27
2022-12-18T05:15:58.907Z,86.79
2022-12-18T05:17:01.184Z,86.72
2022-12-18T05:17:57.661Z,87.21
2022-12-18T05:18:59.846Z,87.66
2022-12-18T05:19:58.234Z,86.82
2022-12-18T05:21:00.398Z,86.63
2022-12-18T05:21:58.784Z,85.27
2022-12-18T05:22:59.099Z,84.74
2022-12-18T05:23:59.437Z,84.22
2022-12-18T05:25:01.637Z,86.02
2022-12-18T05:26:00.192Z,87.28
2022-12-18T05:27:00.356Z,86.96
2022-12-18T05:28:00.669Z,87.10
2022-12-18T05:29:01.006Z,86.40
2022-12-18T05:30:03.187Z,86.40
2022-12-18T05:31:01.639Z,87.03
2022-12-18T05:32:03.775Z,87.20
2022-12-18T05:33:03.947Z,86.15
2022-12-18T05:34:02.463Z,86.57
2022-12-18T05:35:04.651Z,86.21
2022-12-18T05:36:03.039Z,85.90
2022-12-18T05:37:03.358Z,85.90
2022-12-18T05:38:06.508Z,86.07
2022-12-18T05:39:03.912Z,85.65
2022-12-18T05:40:06.100Z,85.33
2022-12-18T05:41:04.500Z,85.02
2022-12-18T05:42:04.865Z,85.13
2022-12-18T05:43:07.000Z,85.20
2022-12-18T05:44:06.337Z,86.21
2022-12-18T05:45:06.492Z,86.43
2022-12-18T05:46:06.962Z,86.25
2022-12-18T05:47:07.260Z,86.49
2022-12-18T05:48:07.616Z,85.86
2022-12-18T05:49:07.643Z,85.06
2022-12-18T05:50:07.157Z,85.90
2022-12-18T05:51:07.467Z,86.11
2022-12-18T05:52:07.771Z,86.11
2022-12-18T05:53:11.410Z,86.00
2022-12-18T05:54:08.321Z,86.07
2022-12-18T05:55:09.625Z,85.13
2022-12-18T05:56:08.880Z,85.33
2022-12-18T05:57:09.191Z,85.08
2022-12-18T05:58:12.331Z,84.14
2022-12-18T05:59:12.518Z,83.54
2022-12-18T06:00:10.056Z,83.44
2022-12-18T06:01:11.357Z,84.39
2022-12-18T06:02:11.666Z,84.42
2022-12-18T06:03:11.871Z,84.64
2022-12-18T06:04:13.882Z,84.64
2022-12-18T06:05:12.507Z,85.30
2022-12-18T06:06:13.235Z,83.93
2022-12-18T06:07:12.836Z,83.54
2022-12-18T06:08:12.985Z,83.09
2022-12-18T06:09:13.403Z,82.71
2022-12-18T06:10:15.648Z,82.81
2022-12-18T06:11:14.851Z,82.92
2022-12-18T06:12:13.352Z,82.60
2022-12-18T06:13:13.673Z,82.68
2022-12-18T06:14:13.988Z,83.06
2022-12-18T06:15:16.179Z,82.68
2022-12-18T06:16:14.684Z,82.26
2022-12-18T06:17:15.815Z,83.24
2022-12-18T06:18:15.189Z,83.31
2022-12-18T06:19:15.507Z,83.03
2022-12-18T06:20:15.827Z,82.89
2022-12-18T06:21:18.031Z,82.19
2022-12-18T06:22:18.207Z,82.71
2022-12-18T06:23:18.398Z,83.03
2022-12-18T06:24:18.566Z,83.17
2022-12-18T06:25:18.783Z,83.45
2022-12-18T06:26:17.533Z,82.86
2022-12-18T06:27:19.714Z,82.86
2022-12-18T06:28:18.102Z,83.24
2022-12-18T06:29:21.749Z,82.43
2022-12-18T06:30:20.502Z,82.97
2022-12-18T06:31:20.741Z,83.17
2022-12-18T06:32:20.889Z,82.75
2022-12-18T06:33:19.525Z,82.43
2022-12-18T06:34:19.848Z,82.43
2022-12-18T06:35:22.053Z,82.16
2022-12-18T06:36:22.220Z,83.46
2022-12-18T06:37:22.417Z,83.36
2022-12-18T06:38:22.594Z,83.56
2022-12-18T06:39:23.297Z,83.78
2022-12-18T06:40:24.428Z,83.25
2022-12-18T06:41:23.648Z,83.39
2022-12-18T06:42:23.824Z,84.06
2022-12-18T06:43:24.019Z,85.01
2022-12-18T06:44:24.706Z,84.76
2022-12-18T06:45:23.098Z,83.92
2022-12-18T06:46:25.286Z,84.45
2022-12-18T06:47:23.675Z,84.23
2022-12-18T06:48:25.868Z,83.18
2022-12-18T06:49:30.147Z,83.36
2022-12-18T06:50:27.434Z,83.46
2022-12-18T06:51:24.945Z,83.50
2022-12-18T06:52:25.148Z,83.56
2022-12-18T06:53:25.458Z,83.81
2022-12-18T06:54:27.619Z,83.88
2022-12-18T06:55:26.194Z,83.88
2022-12-18T06:56:27.837Z,83.67
2022-12-18T06:57:26.599Z,83.56
2022-12-18T06:58:27.041Z,84.58
2022-12-18T06:59:27.185Z,83.95
2022-12-18T07:00:27.488Z,83.07
2022-12-18T07:01:29.779Z,83.00
2022-12-18T07:02:29.138Z,83.73
2022-12-18T07:03:28.361Z,83.00
2022-12-18T07:04:30.574Z,82.89
2022-12-18T07:05:28.958Z,82.58
2022-12-18T07:06:31.157Z,82.68
2022-12-18T07:07:29.537Z,83.31
2022-12-18T07:08:29.868Z,83.49
2022-12-18T07:09:33.021Z,83.00
2022-12-18T07:10:30.477Z,82.97
2022-12-18T07:11:32.610Z,82.68
2022-12-18T07:12:31.028Z,83.31
2022-12-18T07:13:31.351Z,83.42
2022-12-18T07:14:31.664Z,83.53
2022-12-18T07:15:33.844Z,82.79
2022-12-18T07:16:34.082Z,82.79
2022-12-18T07:17:32.564Z,82.89
2022-12-18T07:18:32.906Z,83.11
2022-12-18T07:19:35.077Z,82.68
2022-12-18T07:20:33.487Z,82.65
2022-12-18T07:21:33.822Z,82.01
2022-12-18T07:22:34.139Z,81.84
2022-12-18T07:23:34.469Z,81.59
2022-12-18T07:24:35.646Z,82.33
2022-12-18T07:25:36.985Z,81.49
2022-12-18T07:26:37.190Z,81.88
2022-12-18T07:27:35.591Z,82.82
2022-12-18T07:28:35.918Z,82.65
2022-12-18T07:29:38.104Z,81.42
2022-12-18T07:30:36.567Z,81.42
2022-12-18T07:31:39.770Z,82.26
2022-12-18T07:32:38.956Z,82.68
2022-12-18T07:33:37.907Z,82.43
2022-12-18T07:34:37.784Z,81.74
2022-12-18T07:35:38.186Z,82.05
2022-12-18T07:36:40.305Z,81.95
2022-12-18T07:37:40.492Z,81.95
2022-12-18T07:38:39.038Z,82.01
2022-12-18T07:39:39.366Z,81.74
2022-12-18T07:40:40.514Z,81.74
2022-12-18T07:41:46.590Z,82.16
2022-12-18T07:42:42.297Z,81.95
2022-12-18T07:43:42.977Z,82.05
2022-12-18T07:44:40.881Z,82.09
2022-12-18T07:45:42.140Z,82.09
2022-12-18T07:46:44.894Z,82.62
2022-12-18T07:47:42.656Z,82.55
2022-12-18T07:48:43.016Z,82.93
2022-12-18T07:49:44.247Z,83.04
2022-12-18T07:50:43.387Z,82.58
2022-12-18T07:51:45.675Z,82.30
2022-12-18T07:52:43.114Z,82.68
2022-12-18T07:53:46.234Z,81.67
2022-12-18T07:54:44.794Z,82.30
2022-12-18T07:56:17.872Z,82.97
2022-12-18T07:56:46.308Z,83.14
2022-12-18T07:57:56.532Z,82.93
2022-12-18T07:58:46.714Z,82.58
2022-12-18T07:59:46.099Z,82.37
2022-12-18T08:00:47.384Z,82.16
2022-12-18T08:01:47.622Z,81.95
2022-12-18T08:02:47.779Z,82.33
2022-12-18T08:03:46.185Z,81.52
2022-12-18T08:04:48.381Z,81.95
2022-12-18T08:05:46.776Z,81.84
2022-12-18T08:06:48.166Z,82.09
2022-12-18T08:07:48.319Z,82.58
2022-12-18T08:08:48.571Z,82.79
2022-12-18T08:09:49.917Z,82.33
2022-12-18T08:10:50.119Z,81.28
2022-12-18T08:11:50.306Z,81.52
2022-12-18T08:12:50.496Z,81.74
2022-12-18T08:13:51.198Z,82.26
2022-12-18T08:14:51.408Z,82.26
2022-12-18T08:15:51.561Z,82.16
2022-12-18T08:16:51.792Z,82.16
2022-12-18T08:17:52.453Z,82.40
2022-12-18T08:18:52.649Z,82.58
2022-12-18T08:19:53.187Z,82.79
2022-12-18T08:20:53.076Z,82.16
2022-12-18T08:21:53.256Z,82.58
2022-12-18T08:22:53.961Z,82.68
2022-12-18T08:23:54.162Z,82.62
2022-12-18T08:24:54.357Z,82.51
2022-12-18T08:25:55.500Z,82.62
2022-12-18T08:27:20.721Z,82.79
2022-12-18T08:27:54.562Z,82.47
2022-12-18T08:28:55.770Z,82.79
2022-12-18T08:29:55.946Z,82.68
2022-12-18T08:30:56.213Z,82.47
2022-12-18T08:31:54.785Z,82.68
2022-12-18T08:32:56.932Z,83.00
2022-12-18T08:33:55.397Z,82.68
2022-12-18T08:34:57.424Z,82.58
2022-12-18T08:35:55.854Z,82.89
2022-12-18T08:36:56.091Z,83.00
2022-12-18T08:37:58.297Z,82.37
2022-12-18T08:38:56.613Z,82.16
2022-12-18T08:39:58.785Z,82.23
2022-12-18T08:40:57.098Z,81.74
2022-12-18T08:41:59.296Z,81.84
2022-12-18T08:42:57.605Z,82.16
2022-12-18T08:43:57.829Z,82.05
2022-12-18T08:45:00.025Z,81.67
2022-12-18T08:46:00.291Z,82.30
2022-12-18T08:46:58.710Z,82.05
2022-12-18T08:47:58.942Z,81.98
2022-12-18T08:49:01.136Z,82.82
2022-12-18T08:50:01.296Z,82.16
2022-12-18T08:50:59.713Z,81.74
2022-12-18T08:51:59.954Z,81.32
2022-12-18T08:53:00.185Z,81.63
2022-12-18T08:54:00.410Z,81.21
2022-12-18T08:55:02.615Z,81.32
2022-12-18T08:56:02.827Z,81.52
2022-12-18T08:57:01.274Z,81.38
2022-12-18T08:58:03.446Z,81.21
2022-12-18T08:59:03.777Z,81.59
2022-12-18T09:00:02.052Z,81.38
2022-12-18T09:01:02.338Z,81.32
2022-12-18T09:02:04.633Z,81.84
2022-12-18T09:03:02.844Z,81.70
2022-12-18T09:04:04.931Z,81.21
2022-12-18T09:05:03.367Z,81.63
2022-12-18T09:06:05.540Z,81.49
2022-12-18T09:07:03.846Z,81.63
2022-12-18T09:08:06.035Z,81.32
2022-12-18T09:09:06.225Z,81.95
2022-12-18T09:10:04.659Z,82.05
2022-12-18T09:11:07.843Z,81.52
2022-12-18T09:12:07.034Z,82.26
2022-12-18T09:13:07.154Z,81.59
2022-12-18T09:14:07.323Z,81.63
2022-12-18T09:15:06.817Z,82.01
2022-12-18T09:16:06.233Z,81.28
2022-12-18T09:17:06.806Z,81.21
2022-12-18T09:18:06.691Z,81.42
2022-12-18T09:19:08.922Z,81.91
2022-12-18T09:20:07.212Z,81.38
2022-12-18T09:21:07.446Z,81.17
2022-12-18T09:22:07.675Z,81.28
2022-12-18T09:23:07.911Z,81.17
2022-12-18T09:24:10.101Z,81.07
2022-12-18T09:25:11.013Z,81.28
2022-12-18T09:26:08.703Z,80.65
2022-12-18T09:27:08.930Z,80.86
2022-12-18T09:28:11.131Z,81.07
2022-12-18T09:29:09.431Z,81.07
2022-12-18T09:30:11.631Z,80.82
2022-12-18T09:31:09.987Z,80.65
2022-12-18T09:32:10.204Z,81.03
2022-12-18T09:33:10.445Z,80.75
2022-12-18T09:34:12.708Z,81.03
2022-12-18T09:35:12.808Z,80.65
2022-12-18T09:36:11.340Z,81.03
2022-12-18T09:37:11.573Z,80.36
2022-12-18T09:38:11.804Z,80.26
2022-12-18T09:39:12.051Z,79.98
2022-12-18T09:40:14.244Z,80.51
2022-12-18T09:41:12.548Z,80.05
2022-12-18T09:42:12.786Z,80.15
2022-12-18T09:43:13.024Z,80.01
2022-12-18T09:44:13.303Z,79.73
2022-12-18T09:45:16.445Z,79.00
2022-12-18T09:46:13.891Z,79.38
2022-12-18T09:47:14.144Z,79.10
2022-12-18T09:48:16.867Z,79.00
2022-12-18T09:49:15.578Z,79.31
2022-12-18T09:50:17.481Z,79.56
2022-12-18T09:51:15.355Z,79.98
2022-12-18T09:52:16.543Z,80.08
2022-12-18T09:53:16.730Z,79.98
2022-12-18T09:54:18.078Z,79.73
2022-12-18T09:55:19.227Z,79.41
2022-12-18T09:56:18.453Z,78.96
2022-12-18T09:57:16.995Z,79.06
2022-12-18T09:58:19.189Z,78.78
2022-12-18T09:59:19.380Z,78.89
2022-12-18T10:00:19.563Z,78.75
2022-12-18T10:01:19.115Z,78.68
2022-12-18T10:02:19.500Z,78.54
2022-12-18T10:03:19.599Z,78.75
2022-12-18T10:04:18.960Z,78.44
2022-12-18T10:05:22.537Z,78.85
2022-12-18T10:06:19.368Z,78.33
2022-12-18T10:07:19.603Z,78.12
2022-12-18T10:08:19.824Z,78.29
2022-12-18T10:09:21.993Z,77.87
2022-12-18T10:10:22.185Z,78.22
2022-12-18T10:11:20.612Z,78.40
2022-12-18T10:12:21.804Z,77.70
2022-12-18T10:13:21.088Z,77.98
2022-12-18T10:14:22.143Z,78.02
2022-12-18T10:15:23.551Z,77.98
2022-12-18T10:16:22.972Z,78.29
2022-12-18T10:17:23.141Z,78.15
2022-12-18T10:18:22.543Z,77.94
2022-12-18T10:19:22.783Z,77.52
2022-12-18T10:20:23.032Z,77.52
2022-12-18T10:21:23.287Z,77.84
2022-12-18T10:22:23.526Z,77.62
2022-12-18T10:23:23.831Z,77.28
2022-12-18T10:24:24.066Z,77.03
2022-12-18T10:25:25.261Z,76.68
2022-12-18T10:26:24.550Z,76.19
2022-12-18T10:27:25.243Z,76.19
2022-12-18T10:28:26.995Z,75.84
2022-12-18T10:29:27.175Z,75.39
2022-12-18T10:30:27.363Z,74.76
2022-12-18T10:31:26.893Z,74.65
2022-12-18T10:32:26.192Z,75.46
2022-12-18T10:33:26.421Z,75.98
2022-12-18T10:34:26.657Z,76.29
2022-12-18T10:35:28.845Z,76.23
2022-12-18T10:36:27.145Z,77.28
2022-12-18T10:37:27.373Z,77.07
2022-12-18T10:38:27.609Z,76.93
2022-12-18T10:39:27.837Z,75.98
2022-12-18T10:40:29.052Z,76.61
2022-12-18T10:41:29.209Z,76.54
2022-12-18T10:42:28.589Z,76.57
2022-12-18T10:43:28.823Z,77.31
2022-12-18T10:44:30.988Z,77.59
2022-12-18T10:45:31.170Z,77.00
2022-12-18T10:46:31.407Z,76.23
2022-12-18T10:47:31.553Z,74.48
2022-12-18T10:48:31.723Z,74.41
2022-12-18T10:49:30.450Z,73.82
2022-12-18T10:51:01.691Z,72.25
2022-12-18T10:51:32.001Z,72.84
2022-12-18T10:52:33.123Z,73.79
2022-12-18T10:53:33.302Z,73.99
2022-12-18T10:54:32.649Z,73.92
2022-12-18T10:55:33.993Z,74.55
2022-12-18T10:56:34.181Z,74.24
2022-12-18T10:57:34.364Z,75.15
2022-12-18T10:58:33.792Z,73.92
2022-12-18T10:59:33.196Z,74.55
2022-12-18T11:00:33.475Z,74.97
2022-12-18T11:01:33.778Z,74.48
2022-12-18T11:02:36.130Z,74.02
2022-12-18T11:03:34.278Z,74.65
2022-12-18T11:04:34.477Z,75.11
2022-12-18T11:05:34.709Z,75.42
2022-12-18T11:06:36.899Z,76.09
2022-12-18T11:07:35.194Z,76.37
2022-12-18T11:08:35.425Z,75.92
2022-12-18T11:09:35.657Z,75.32
2022-12-18T11:10:37.837Z,75.49
2022-12-18T11:11:38.033Z,75.95
2022-12-18T11:12:36.464Z,75.92
2022-12-18T11:13:36.699Z,75.39
2022-12-18T11:14:37.758Z,75.07
2022-12-18T11:15:37.204Z,75.01
2022-12-18T11:16:39.581Z,75.63
2022-12-18T11:17:37.638Z,76.37
2022-12-18T11:18:38.209Z,76.12
2022-12-18T11:19:38.165Z,75.95
2022-12-18T11:20:38.409Z,76.23
2022-12-18T11:21:40.589Z,75.60
2022-12-18T11:22:39.040Z,75.39
2022-12-18T11:23:39.264Z,75.15
2022-12-18T11:24:39.511Z,74.90
2022-12-18T11:25:39.734Z,74.31
2022-12-18T11:26:40.093Z,73.19
2022-12-18T11:27:40.431Z,73.54
2022-12-18T11:28:41.037Z,73.79
2022-12-18T11:29:46.386Z,74.83
2022-12-18T11:30:42.165Z,75.11
2022-12-18T11:31:43.404Z,74.73
2022-12-18T11:32:41.791Z,74.83
2022-12-18T11:34:04.903Z,75.25
2022-12-18T11:34:43.275Z,75.35
2022-12-18T11:35:44.455Z,75.35
2022-12-18T11:36:42.901Z,75.04
2022-12-18T11:37:43.129Z,74.55
2022-12-18T11:38:43.815Z,73.96
2022-12-18T11:39:43.618Z,74.66
2022-12-18T11:40:43.852Z,73.50
2022-12-18T11:41:46.041Z,73.68
2022-12-18T11:42:46.242Z,72.74
2022-12-18T11:43:46.424Z,73.37
2022-12-18T11:44:46.802Z,73.30
2022-12-18T11:45:45.098Z,74.83
2022-12-18T11:46:45.352Z,75.11
2022-12-18T11:47:47.519Z,74.58
2022-12-18T11:48:45.823Z,74.34
2022-12-18T11:49:46.219Z,74.45
2022-12-18T11:50:46.290Z,73.89
2022-12-18T11:51:48.468Z,73.47
2022-12-18T11:52:48.505Z,73.50
2022-12-18T11:53:48.939Z,74.45
2022-12-18T11:54:47.370Z,74.58
2022-12-18T11:55:49.557Z,74.66
2022-12-18T11:56:49.742Z,74.80
2022-12-18T11:57:49.920Z,75.46
2022-12-18T11:58:48.484Z,75.67
2022-12-18T11:59:48.697Z,75.43
2022-12-18T12:00:49.060Z,75.11
2022-12-18T12:01:52.778Z,75.04
2022-12-18T12:02:51.443Z,75.84
2022-12-18T12:03:49.896Z,75.32
2022-12-18T12:04:52.049Z,75.29
2022-12-18T12:05:50.361Z,75.88
2022-12-18T12:06:50.602Z,75.98
2022-12-18T12:07:50.821Z,75.56
2022-12-18T12:08:53.066Z,75.53
2022-12-18T12:09:51.363Z,75.04
2022-12-18T12:10:51.610Z,75.70
2022-12-18T12:11:51.830Z,75.60
2022-12-18T12:12:52.069Z,75.18
2022-12-18T12:13:54.254Z,75.11
2022-12-18T12:14:52.553Z,75.32
2022-12-18T12:15:52.813Z,75.21
2022-12-18T12:16:53.740Z,74.87
2022-12-18T12:17:53.273Z,75.21
2022-12-18T12:18:56.910Z,75.53
2022-12-18T12:19:53.968Z,75.43
2022-12-18T12:20:57.145Z,75.81
2022-12-18T12:21:54.447Z,75.15
2022-12-18T12:22:57.580Z,74.52
2022-12-18T12:23:55.147Z,73.79
2022-12-18T12:24:56.258Z,74.21
2022-12-18T12:25:56.666Z,75.11
2022-12-18T12:26:55.951Z,75.15
2022-12-18T12:27:58.143Z,74.62
2022-12-18T12:28:58.331Z,74.38
2022-12-18T12:29:58.517Z,73.47
2022-12-18T12:30:57.060Z,74.34
2022-12-18T12:31:58.319Z,75.74
2022-12-18T12:32:57.607Z,76.16
2022-12-18T12:34:00.735Z,76.61
2022-12-18T12:35:01.809Z,77.42
2022-12-18T12:35:59.405Z,76.44
2022-12-18T12:36:58.689Z,75.74
2022-12-18T12:37:58.919Z,76.20
2022-12-18T12:39:01.110Z,75.78
2022-12-18T12:40:00.369Z,75.04
2022-12-18T12:41:03.403Z,75.32
2022-12-18T12:41:59.898Z,76.30
2022-12-18T12:43:00.198Z,75.46
2022-12-18T12:44:02.373Z,75.22
2022-12-18T12:45:02.571Z,73.93
2022-12-18T12:46:02.817Z,73.90
2022-12-18T12:47:01.202Z,73.82
2022-12-18T12:48:01.410Z,73.75
2022-12-18T12:49:01.769Z,74.31
2022-12-18T12:51:03.420Z,75.11
2022-12-18T12:52:05.311Z,75.60
2022-12-18T12:53:02.920Z,75.81
2022-12-18T12:54:03.203Z,75.46
2022-12-18T12:55:08.035Z,75.98
2022-12-18T12:56:06.567Z,75.46
2022-12-18T12:57:05.764Z,75.57
2022-12-18T12:58:04.337Z,74.59